sensor_id;sensor_type;location;lat;lon;timestamp;P1;durP1;ratioP1;P2;durP2;ratioP2
1471;SDS011;963;42.644;23.336;2022-12-10T00:01:28;13.93;;;8.33;;
1471;SDS011;963;42.644;23.336;2022-12-10T00:03:55;17.13;;;9.73;;
1471;SDS011;963;42.644;23.336;2022-12-10T00:06:22;14.07;;;9.93;;
1471;SDS011;963;42.644;23.336;2022-12-10T00:08:49;16.87;;;8.67;;
1471;SDS011;963;42.644;23.336;2022-12-10T00:11:15;17.93;;;9.03;;
1471;SDS011;963;42.644;23.336;2022-12-10T00:13:42;19.17;;;8.27;;
1471;SDS011;963;42.644;23.336;2022-12-10T00:16:09;25.33;;;9.53;;
1471;SDS011;963;42.644;23.336;2022-12-10T00:18:36;22.90;;;9.37;;
1471;SDS011;963;42.644;23.336;2022-12-10T00:21:03;13.97;;;8.60;;
1471;SDS011;963;42.644;23.336;2022-12-10T00:23:30;17.87;;;8.50;;
1471;SDS011;963;42.644;23.336;2022-12-10T00:26:10;16.77;;;8.00;;
1471;SDS011;963;42.644;23.336;2022-12-10T00:28:37;16.63;;;8.63;;
1471;SDS011;963;42.644;23.336;2022-12-10T00:31:13;15.93;;;9.17;;
1471;SDS011;963;42.644;23.336;2022-12-10T00:33:41;20.00;;;9.90;;
1471;SDS011;963;42.644;23.336;2022-12-10T00:36:08;17.70;;;10.10;;
1471;SDS011;963;42.644;23.336;2022-12-10T00:38:42;21.13;;;9.07;;
1471;SDS011;963;42.644;23.336;2022-12-10T00:41:09;16.20;;;10.50;;
1471;SDS011;963;42.644;23.336;2022-12-10T00:43:35;18.50;;;9.30;;
1471;SDS011;963;42.644;23.336;2022-12-10T00:46:01;23.10;;;9.53;;
1471;SDS011;963;42.644;23.336;2022-12-10T00:48:27;18.30;;;8.73;;
1471;SDS011;963;42.644;23.336;2022-12-10T00:50:54;14.53;;;8.70;;
1471;SDS011;963;42.644;23.336;2022-12-10T00:53:24;17.80;;;9.10;;
1471;SDS011;963;42.644;23.336;2022-12-10T00:55:51;20.27;;;9.90;;
1471;SDS011;963;42.644;23.336;2022-12-10T00:58:17;17.27;;;9.20;;
1471;SDS011;963;42.644;23.336;2022-12-10T01:00:42;16.90;;;10.10;;
1471;SDS011;963;42.644;23.336;2022-12-10T01:03:08;18.73;;;9.27;;
1471;SDS011;963;42.644;23.336;2022-12-10T01:05:33;18.80;;;8.63;;
1471;SDS011;963;42.644;23.336;2022-12-10T01:07:59;21.93;;;9.20;;
1471;SDS011;963;42.644;23.336;2022-12-10T01:10:24;16.30;;;10.10;;
1471;SDS011;963;42.644;23.336;2022-12-10T01:12:49;18.57;;;9.73;;
1471;SDS011;963;42.644;23.336;2022-12-10T01:15:15;23.10;;;9.53;;
1471;SDS011;963;42.644;23.336;2022-12-10T01:17:40;19.60;;;9.20;;
1471;SDS011;963;42.644;23.336;2022-12-10T01:20:06;15.67;;;9.10;;
1471;SDS011;963;42.644;23.336;2022-12-10T01:22:31;20.80;;;9.87;;
1471;SDS011;963;42.644;23.336;2022-12-10T01:24:57;17.60;;;8.70;;
1471;SDS011;963;42.644;23.336;2022-12-10T01:27:22;16.03;;;9.40;;
1471;SDS011;963;42.644;23.336;2022-12-10T01:29:47;15.60;;;8.50;;
1471;SDS011;963;42.644;23.336;2022-12-10T01:32:13;19.27;;;9.00;;
1471;SDS011;963;42.644;23.336;2022-12-10T01:34:38;21.67;;;10.80;;
1471;SDS011;963;42.644;23.336;2022-12-10T01:37:04;18.90;;;9.33;;
1471;SDS011;963;42.644;23.336;2022-12-10T01:39:29;16.77;;;9.30;;
1471;SDS011;963;42.644;23.336;2022-12-10T01:41:56;18.33;;;9.50;;
1471;SDS011;963;42.644;23.336;2022-12-10T01:46:50;21.83;;;9.10;;
1471;SDS011;963;42.644;23.336;2022-12-10T01:49:41;19.40;;;9.23;;
1471;SDS011;963;42.644;23.336;2022-12-10T01:52:07;20.67;;;9.30;;
1471;SDS011;963;42.644;23.336;2022-12-10T01:54:36;13.33;;;8.30;;
1471;SDS011;963;42.644;23.336;2022-12-10T01:57:18;17.27;;;9.20;;
1471;SDS011;963;42.644;23.336;2022-12-10T01:59:47;13.53;;;8.60;;
1471;SDS011;963;42.644;23.336;2022-12-10T02:05:28;18.17;;;8.37;;
1471;SDS011;963;42.644;23.336;2022-12-10T02:10:51;12.67;;;8.13;;
1471;SDS011;963;42.644;23.336;2022-12-10T02:15:52;15.93;;;8.70;;
1471;SDS011;963;42.644;23.336;2022-12-10T02:18:28;17.83;;;8.00;;
1471;SDS011;963;42.644;23.336;2022-12-10T02:21:12;14.23;;;8.60;;
1471;SDS011;963;42.644;23.336;2022-12-10T02:23:51;21.33;;;8.27;;
1471;SDS011;963;42.644;23.336;2022-12-10T02:29:23;16.00;;;7.90;;
1471;SDS011;963;42.644;23.336;2022-12-10T02:31:55;13.87;;;9.60;;
1471;SDS011;963;42.644;23.336;2022-12-10T02:34:26;17.00;;;9.33;;
1471;SDS011;963;42.644;23.336;2022-12-10T02:36:55;17.83;;;10.30;;
1471;SDS011;963;42.644;23.336;2022-12-10T02:39:26;12.67;;;8.47;;
1471;SDS011;963;42.644;23.336;2022-12-10T02:41:56;18.30;;;9.50;;
1471;SDS011;963;42.644;23.336;2022-12-10T02:44:26;17.50;;;8.73;;
1471;SDS011;963;42.644;23.336;2022-12-10T02:46:54;14.10;;;7.90;;
1471;SDS011;963;42.644;23.336;2022-12-10T02:49:22;14.50;;;7.33;;
1471;SDS011;963;42.644;23.336;2022-12-10T02:51:49;10.90;;;7.43;;
1471;SDS011;963;42.644;23.336;2022-12-10T03:05:35;13.40;;;8.10;;
1471;SDS011;963;42.644;23.336;2022-12-10T03:08:59;12.73;;;6.83;;
1471;SDS011;963;42.644;23.336;2022-12-10T03:11:20;8.77;;;6.00;;
1471;SDS011;963;42.644;23.336;2022-12-10T03:16:16;12.33;;;6.10;;
1471;SDS011;963;42.644;23.336;2022-12-10T03:18:43;10.73;;;6.50;;
1471;SDS011;963;42.644;23.336;2022-12-10T03:21:11;11.70;;;6.33;;
1471;SDS011;963;42.644;23.336;2022-12-10T03:23:38;15.30;;;6.67;;
1471;SDS011;963;42.644;23.336;2022-12-10T03:26:07;13.33;;;6.33;;
1471;SDS011;963;42.644;23.336;2022-12-10T03:28:34;11.17;;;5.77;;
1471;SDS011;963;42.644;23.336;2022-12-10T03:31:03;13.43;;;6.30;;
1471;SDS011;963;42.644;23.336;2022-12-10T03:33:29;13.03;;;6.47;;
1471;SDS011;963;42.644;23.336;2022-12-10T03:35:55;10.23;;;6.17;;
1471;SDS011;963;42.644;23.336;2022-12-10T03:38:21;9.20;;;6.67;;
1471;SDS011;963;42.644;23.336;2022-12-10T03:40:47;10.17;;;6.40;;
1471;SDS011;963;42.644;23.336;2022-12-10T03:43:13;10.30;;;6.90;;
1471;SDS011;963;42.644;23.336;2022-12-10T03:45:39;11.40;;;6.40;;
1471;SDS011;963;42.644;23.336;2022-12-10T03:48:05;11.93;;;6.10;;
1471;SDS011;963;42.644;23.336;2022-12-10T03:50:30;12.27;;;5.90;;
1471;SDS011;963;42.644;23.336;2022-12-10T03:52:56;14.57;;;6.50;;
1471;SDS011;963;42.644;23.336;2022-12-10T03:55:21;11.37;;;6.13;;
1471;SDS011;963;42.644;23.336;2022-12-10T03:57:46;9.27;;;6.23;;
1471;SDS011;963;42.644;23.336;2022-12-10T04:00:13;10.80;;;5.43;;
1471;SDS011;963;42.644;23.336;2022-12-10T04:02:38;11.67;;;5.80;;
1471;SDS011;963;42.644;23.336;2022-12-10T04:05:04;11.90;;;5.90;;
1471;SDS011;963;42.644;23.336;2022-12-10T04:07:31;7.00;;;5.37;;
1471;SDS011;963;42.644;23.336;2022-12-10T04:09:57;11.30;;;6.20;;
1471;SDS011;963;42.644;23.336;2022-12-10T04:12:22;8.83;;;5.23;;
1471;SDS011;963;42.644;23.336;2022-12-10T04:14:47;10.83;;;5.60;;
1471;SDS011;963;42.644;23.336;2022-12-10T04:17:32;11.43;;;6.03;;
1471;SDS011;963;42.644;23.336;2022-12-10T04:19:58;8.83;;;5.50;;
1471;SDS011;963;42.644;23.336;2022-12-10T04:22:24;10.50;;;5.70;;
1471;SDS011;963;42.644;23.336;2022-12-10T04:25:10;10.20;;;6.70;;
1471;SDS011;963;42.644;23.336;2022-12-10T04:27:55;9.17;;;5.20;;
1471;SDS011;963;42.644;23.336;2022-12-10T04:30:22;9.67;;;5.80;;
1471;SDS011;963;42.644;23.336;2022-12-10T04:32:47;9.97;;;5.77;;
1471;SDS011;963;42.644;23.336;2022-12-10T04:35:12;9.23;;;5.40;;
1471;SDS011;963;42.644;23.336;2022-12-10T04:37:38;13.67;;;6.63;;
1471;SDS011;963;42.644;23.336;2022-12-10T04:40:04;11.43;;;5.50;;
1471;SDS011;963;42.644;23.336;2022-12-10T04:42:30;11.67;;;6.07;;
1471;SDS011;963;42.644;23.336;2022-12-10T04:44:55;12.33;;;5.70;;
1471;SDS011;963;42.644;23.336;2022-12-10T04:47:20;10.60;;;5.20;;
1471;SDS011;963;42.644;23.336;2022-12-10T04:49:46;10.97;;;5.20;;
1471;SDS011;963;42.644;23.336;2022-12-10T04:52:13;10.70;;;5.70;;
1471;SDS011;963;42.644;23.336;2022-12-10T04:54:40;10.00;;;5.87;;
1471;SDS011;963;42.644;23.336;2022-12-10T04:57:07;10.60;;;5.50;;
1471;SDS011;963;42.644;23.336;2022-12-10T04:59:33;9.83;;;5.70;;
1471;SDS011;963;42.644;23.336;2022-12-10T05:01:59;12.10;;;6.00;;
1471;SDS011;963;42.644;23.336;2022-12-10T05:04:24;9.03;;;5.50;;
1471;SDS011;963;42.644;23.336;2022-12-10T05:06:50;7.27;;;5.50;;
1471;SDS011;963;42.644;23.336;2022-12-10T05:09:15;8.57;;;5.53;;
1471;SDS011;963;42.644;23.336;2022-12-10T05:11:42;10.50;;;5.57;;
1471;SDS011;963;42.644;23.336;2022-12-10T05:14:12;8.10;;;4.93;;
1471;SDS011;963;42.644;23.336;2022-12-10T05:16:39;11.17;;;6.07;;
1471;SDS011;963;42.644;23.336;2022-12-10T05:19:05;9.60;;;6.13;;
1471;SDS011;963;42.644;23.336;2022-12-10T05:21:30;13.83;;;6.70;;
1471;SDS011;963;42.644;23.336;2022-12-10T05:24:15;12.93;;;5.60;;
1471;SDS011;963;42.644;23.336;2022-12-10T05:26:42;17.90;;;6.63;;
1471;SDS011;963;42.644;23.336;2022-12-10T05:29:07;10.53;;;6.10;;
1471;SDS011;963;42.644;23.336;2022-12-10T05:31:33;11.27;;;6.10;;
1471;SDS011;963;42.644;23.336;2022-12-10T05:33:59;11.30;;;7.50;;
1471;SDS011;963;42.644;23.336;2022-12-10T05:36:25;14.40;;;7.17;;
1471;SDS011;963;42.644;23.336;2022-12-10T05:38:53;10.73;;;7.60;;
1471;SDS011;963;42.644;23.336;2022-12-10T05:41:20;13.43;;;6.33;;
1471;SDS011;963;42.644;23.336;2022-12-10T05:43:47;12.10;;;6.67;;
1471;SDS011;963;42.644;23.336;2022-12-10T05:46:14;17.93;;;8.37;;
1471;SDS011;963;42.644;23.336;2022-12-10T05:48:41;18.67;;;8.97;;
1471;SDS011;963;42.644;23.336;2022-12-10T05:51:11;10.83;;;6.63;;
1471;SDS011;963;42.644;23.336;2022-12-10T05:53:38;11.67;;;6.23;;
1471;SDS011;963;42.644;23.336;2022-12-10T05:56:08;13.20;;;6.50;;
1471;SDS011;963;42.644;23.336;2022-12-10T05:58:35;10.50;;;6.47;;
1471;SDS011;963;42.644;23.336;2022-12-10T06:01:05;10.10;;;6.43;;
1471;SDS011;963;42.644;23.336;2022-12-10T06:03:32;11.67;;;7.13;;
1471;SDS011;963;42.644;23.336;2022-12-10T06:05:58;9.77;;;6.30;;
1471;SDS011;963;42.644;23.336;2022-12-10T06:08:23;11.93;;;7.27;;
1471;SDS011;963;42.644;23.336;2022-12-10T06:10:48;9.83;;;6.80;;
1471;SDS011;963;42.644;23.336;2022-12-10T06:13:14;11.50;;;7.30;;
1471;SDS011;963;42.644;23.336;2022-12-10T06:15:40;17.90;;;7.17;;
1471;SDS011;963;42.644;23.336;2022-12-10T06:18:06;10.40;;;6.80;;
1471;SDS011;963;42.644;23.336;2022-12-10T06:20:31;14.13;;;7.17;;
1471;SDS011;963;42.644;23.336;2022-12-10T06:22:57;14.90;;;6.70;;
1471;SDS011;963;42.644;23.336;2022-12-10T06:25:22;8.50;;;5.80;;
1471;SDS011;963;42.644;23.336;2022-12-10T06:27:48;10.73;;;6.83;;
1471;SDS011;963;42.644;23.336;2022-12-10T06:30:14;13.03;;;6.33;;
1471;SDS011;963;42.644;23.336;2022-12-10T06:32:39;9.97;;;5.70;;
1471;SDS011;963;42.644;23.336;2022-12-10T06:35:07;10.80;;;6.90;;
1471;SDS011;963;42.644;23.336;2022-12-10T06:37:34;10.90;;;6.20;;
1471;SDS011;963;42.644;23.336;2022-12-10T06:39:59;11.00;;;7.20;;
1471;SDS011;963;42.644;23.336;2022-12-10T06:42:24;12.00;;;6.27;;
1471;SDS011;963;42.644;23.336;2022-12-10T06:44:50;11.97;;;6.57;;
1471;SDS011;963;42.644;23.336;2022-12-10T06:47:15;13.30;;;6.77;;
1471;SDS011;963;42.644;23.336;2022-12-10T06:49:41;15.13;;;7.23;;
1471;SDS011;963;42.644;23.336;2022-12-10T06:52:06;16.73;;;8.23;;
1471;SDS011;963;42.644;23.336;2022-12-10T06:54:32;14.20;;;7.73;;
1471;SDS011;963;42.644;23.336;2022-12-10T06:56:58;10.23;;;7.57;;
1471;SDS011;963;42.644;23.336;2022-12-10T06:59:23;13.00;;;6.63;;
1471;SDS011;963;42.644;23.336;2022-12-10T07:01:49;9.63;;;7.07;;
1471;SDS011;963;42.644;23.336;2022-12-10T07:04:14;14.43;;;7.00;;
1471;SDS011;963;42.644;23.336;2022-12-10T07:06:40;13.57;;;7.90;;
1471;SDS011;963;42.644;23.336;2022-12-10T07:09:05;20.10;;;7.97;;
1471;SDS011;963;42.644;23.336;2022-12-10T07:11:31;9.97;;;7.20;;
1471;SDS011;963;42.644;23.336;2022-12-10T07:13:57;18.90;;;7.90;;
1471;SDS011;963;42.644;23.336;2022-12-10T07:16:24;9.50;;;7.23;;
1471;SDS011;963;42.644;23.336;2022-12-10T07:18:52;10.00;;;8.13;;
1471;SDS011;963;42.644;23.336;2022-12-10T07:21:22;15.67;;;8.50;;
1471;SDS011;963;42.644;23.336;2022-12-10T07:23:49;11.40;;;8.00;;
1471;SDS011;963;42.644;23.336;2022-12-10T07:26:18;14.30;;;7.53;;
1471;SDS011;963;42.644;23.336;2022-12-10T07:28:43;14.80;;;8.40;;
1471;SDS011;963;42.644;23.336;2022-12-10T07:31:10;17.63;;;9.13;;
1471;SDS011;963;42.644;23.336;2022-12-10T07:33:35;13.40;;;8.40;;
1471;SDS011;963;42.644;23.336;2022-12-10T07:36:09;12.27;;;7.37;;
1471;SDS011;963;42.644;23.336;2022-12-10T07:38:36;14.47;;;9.17;;
1471;SDS011;963;42.644;23.336;2022-12-10T07:41:03;14.73;;;10.53;;
1471;SDS011;963;42.644;23.336;2022-12-10T07:43:29;12.20;;;8.43;;
1471;SDS011;963;42.644;23.336;2022-12-10T07:45:55;12.40;;;8.57;;
1471;SDS011;963;42.644;23.336;2022-12-10T07:48:20;13.70;;;9.10;;
1471;SDS011;963;42.644;23.336;2022-12-10T07:50:46;13.30;;;8.57;;
1471;SDS011;963;42.644;23.336;2022-12-10T07:53:12;17.03;;;9.40;;
1471;SDS011;963;42.644;23.336;2022-12-10T07:55:37;14.10;;;9.33;;
1471;SDS011;963;42.644;23.336;2022-12-10T07:58:03;14.03;;;8.73;;
1471;SDS011;963;42.644;23.336;2022-12-10T08:00:28;14.23;;;8.90;;
1471;SDS011;963;42.644;23.336;2022-12-10T08:02:54;12.40;;;9.10;;
1471;SDS011;963;42.644;23.336;2022-12-10T08:05:19;22.43;;;9.70;;
1471;SDS011;963;42.644;23.336;2022-12-10T08:07:44;14.33;;;9.70;;
1471;SDS011;963;42.644;23.336;2022-12-10T08:10:10;13.90;;;10.70;;
1471;SDS011;963;42.644;23.336;2022-12-10T08:12:35;20.60;;;13.47;;
1471;SDS011;963;42.644;23.336;2022-12-10T08:15:01;18.30;;;10.20;;
1471;SDS011;963;42.644;23.336;2022-12-10T08:17:27;15.23;;;10.87;;
1471;SDS011;963;42.644;23.336;2022-12-10T08:19:53;15.10;;;10.57;;
1471;SDS011;963;42.644;23.336;2022-12-10T08:22:19;21.23;;;12.47;;
1471;SDS011;963;42.644;23.336;2022-12-10T08:24:45;16.33;;;10.43;;
1471;SDS011;963;42.644;23.336;2022-12-10T08:27:11;18.77;;;11.13;;
1471;SDS011;963;42.644;23.336;2022-12-10T08:29:36;18.23;;;12.13;;
1471;SDS011;963;42.644;23.336;2022-12-10T08:32:02;16.20;;;11.40;;
1471;SDS011;963;42.644;23.336;2022-12-10T08:34:27;20.53;;;14.10;;
1471;SDS011;963;42.644;23.336;2022-12-10T08:36:53;21.80;;;12.90;;
1471;SDS011;963;42.644;23.336;2022-12-10T08:39:18;14.73;;;10.67;;
1471;SDS011;963;42.644;23.336;2022-12-10T08:41:44;19.00;;;11.00;;
1471;SDS011;963;42.644;23.336;2022-12-10T08:44:10;15.50;;;10.80;;
1471;SDS011;963;42.644;23.336;2022-12-10T08:46:36;13.20;;;9.97;;
1471;SDS011;963;42.644;23.336;2022-12-10T08:49:02;13.60;;;11.37;;
1471;SDS011;963;42.644;23.336;2022-12-10T08:51:28;17.70;;;11.63;;
1471;SDS011;963;42.644;23.336;2022-12-10T08:53:53;16.93;;;12.33;;
1471;SDS011;963;42.644;23.336;2022-12-10T08:56:19;18.83;;;10.60;;
1471;SDS011;963;42.644;23.336;2022-12-10T08:58:44;19.27;;;12.40;;
1471;SDS011;963;42.644;23.336;2022-12-10T09:01:14;23.90;;;11.70;;
1471;SDS011;963;42.644;23.336;2022-12-10T09:03:41;18.83;;;11.87;;
1471;SDS011;963;42.644;23.336;2022-12-10T09:06:08;23.33;;;10.50;;
1471;SDS011;963;42.644;23.336;2022-12-10T09:08:35;15.63;;;9.10;;
1471;SDS011;963;42.644;23.336;2022-12-10T09:11:09;12.50;;;9.43;;
1471;SDS011;963;42.644;23.336;2022-12-10T09:13:45;15.97;;;10.23;;
1471;SDS011;963;42.644;23.336;2022-12-10T09:16:11;18.90;;;9.00;;
1471;SDS011;963;42.644;23.336;2022-12-10T09:18:37;14.03;;;10.13;;
1471;SDS011;963;42.644;23.336;2022-12-10T09:21:06;12.77;;;9.90;;
1471;SDS011;963;42.644;23.336;2022-12-10T09:23:33;18.03;;;10.13;;
1471;SDS011;963;42.644;23.336;2022-12-10T09:25:59;14.90;;;10.97;;
1471;SDS011;963;42.644;23.336;2022-12-10T09:28:25;14.33;;;10.53;;
1471;SDS011;963;42.644;23.336;2022-12-10T09:30:56;15.27;;;11.17;;
1471;SDS011;963;42.644;23.336;2022-12-10T09:33:23;19.13;;;10.37;;
1471;SDS011;963;42.644;23.336;2022-12-10T09:35:49;21.27;;;14.40;;
1471;SDS011;963;42.644;23.336;2022-12-10T09:38:14;17.23;;;11.50;;
1471;SDS011;963;42.644;23.336;2022-12-10T09:41:25;18.03;;;11.90;;
1471;SDS011;963;42.644;23.336;2022-12-10T09:43:49;19.60;;;11.60;;
1471;SDS011;963;42.644;23.336;2022-12-10T09:46:26;15.17;;;10.90;;
1471;SDS011;963;42.644;23.336;2022-12-10T09:51:22;18.13;;;12.13;;
1471;SDS011;963;42.644;23.336;2022-12-10T09:53:51;17.80;;;12.57;;
1471;SDS011;963;42.644;23.336;2022-12-10T09:56:24;15.40;;;11.73;;
1471;SDS011;963;42.644;23.336;2022-12-10T09:58:53;14.50;;;12.10;;
1471;SDS011;963;42.644;23.336;2022-12-10T10:01:19;13.80;;;9.80;;
1471;SDS011;963;42.644;23.336;2022-12-10T10:03:49;19.77;;;11.63;;
1471;SDS011;963;42.644;23.336;2022-12-10T10:06:15;17.63;;;11.03;;
1471;SDS011;963;42.644;23.336;2022-12-10T10:08:45;13.50;;;11.03;;
1471;SDS011;963;42.644;23.336;2022-12-10T10:11:14;16.57;;;11.00;;
1471;SDS011;963;42.644;23.336;2022-12-10T10:13:49;13.63;;;10.60;;
1471;SDS011;963;42.644;23.336;2022-12-10T10:16:20;14.00;;;10.70;;
1471;SDS011;963;42.644;23.336;2022-12-10T10:18:53;14.47;;;10.80;;
1471;SDS011;963;42.644;23.336;2022-12-10T10:21:43;13.57;;;10.03;;
1471;SDS011;963;42.644;23.336;2022-12-10T10:24:13;14.33;;;10.07;;
1471;SDS011;963;42.644;23.336;2022-12-10T10:26:42;16.17;;;11.40;;
1471;SDS011;963;42.644;23.336;2022-12-10T10:29:08;20.03;;;11.90;;
1471;SDS011;963;42.644;23.336;2022-12-10T10:31:38;16.00;;;10.83;;
1471;SDS011;963;42.644;23.336;2022-12-10T10:34:12;19.40;;;11.40;;
1471;SDS011;963;42.644;23.336;2022-12-10T10:36:47;16.00;;;11.30;;
1471;SDS011;963;42.644;23.336;2022-12-10T10:39:29;15.53;;;11.23;;
1471;SDS011;963;42.644;23.336;2022-12-10T10:41:57;15.03;;;11.83;;
1471;SDS011;963;42.644;23.336;2022-12-10T10:44:34;15.40;;;11.10;;
1471;SDS011;963;42.644;23.336;2022-12-10T10:47:01;17.50;;;10.67;;
1471;SDS011;963;42.644;23.336;2022-12-10T10:49:31;15.10;;;10.50;;
1471;SDS011;963;42.644;23.336;2022-12-10T10:52:05;18.47;;;10.70;;
1471;SDS011;963;42.644;23.336;2022-12-10T10:54:41;18.20;;;11.13;;
1471;SDS011;963;42.644;23.336;2022-12-10T10:59:48;15.03;;;10.30;;
1471;SDS011;963;42.644;23.336;2022-12-10T11:04:52;13.10;;;10.20;;
1471;SDS011;963;42.644;23.336;2022-12-10T11:09:57;20.90;;;10.50;;
1471;SDS011;963;42.644;23.336;2022-12-10T11:12:36;18.17;;;11.67;;
1471;SDS011;963;42.644;23.336;2022-12-10T11:17:47;17.50;;;12.20;;
1471;SDS011;963;42.644;23.336;2022-12-10T11:25:17;13.07;;;11.73;;
1471;SDS011;963;42.644;23.336;2022-12-10T11:27:59;16.80;;;11.33;;
1471;SDS011;963;42.644;23.336;2022-12-10T11:30:30;14.80;;;11.97;;
1471;SDS011;963;42.644;23.336;2022-12-10T11:33:18;15.77;;;11.23;;
1471;SDS011;963;42.644;23.336;2022-12-10T11:36:06;15.37;;;10.60;;
1471;SDS011;963;42.644;23.336;2022-12-10T11:38:56;17.67;;;10.80;;
1471;SDS011;963;42.644;23.336;2022-12-10T12:09:38;30.33;;;18.23;;
1471;SDS011;963;42.644;23.336;2022-12-10T12:18:22;10.97;;;8.33;;
1471;SDS011;963;42.644;23.336;2022-12-10T12:21:02;14.60;;;7.80;;
1471;SDS011;963;42.644;23.336;2022-12-10T12:29:01;11.37;;;7.33;;
1471;SDS011;963;42.644;23.336;2022-12-10T12:34:53;17.67;;;8.30;;
1471;SDS011;963;42.644;23.336;2022-12-10T12:37:28;14.47;;;8.03;;
1471;SDS011;963;42.644;23.336;2022-12-10T12:40:03;18.17;;;9.13;;
1471;SDS011;963;42.644;23.336;2022-12-10T12:42:41;15.90;;;7.77;;
1471;SDS011;963;42.644;23.336;2022-12-10T12:50:43;15.33;;;8.60;;
1471;SDS011;963;42.644;23.336;2022-12-10T12:53:39;11.40;;;7.80;;
1471;SDS011;963;42.644;23.336;2022-12-10T12:58:38;14.20;;;8.97;;
1471;SDS011;963;42.644;23.336;2022-12-10T13:01:26;13.10;;;8.73;;
1471;SDS011;963;42.644;23.336;2022-12-10T13:03:56;15.20;;;8.63;;
1471;SDS011;963;42.644;23.336;2022-12-10T13:06:24;14.20;;;9.00;;
1471;SDS011;963;42.644;23.336;2022-12-10T13:11:38;25.00;;;9.03;;
1471;SDS011;963;42.644;23.336;2022-12-10T13:24:20;17.50;;;9.90;;
1471;SDS011;963;42.644;23.336;2022-12-10T13:27:17;14.73;;;9.27;;
1471;SDS011;963;42.644;23.336;2022-12-10T13:29:57;23.73;;;12.20;;
1471;SDS011;963;42.644;23.336;2022-12-10T13:42:43;17.00;;;9.07;;
1471;SDS011;963;42.644;23.336;2022-12-10T13:45:30;18.87;;;8.70;;
1471;SDS011;963;42.644;23.336;2022-12-10T13:50:38;18.80;;;9.53;;
1471;SDS011;963;42.644;23.336;2022-12-10T13:56:26;11.17;;;8.13;;
1471;SDS011;963;42.644;23.336;2022-12-10T14:06:32;16.00;;;9.40;;
1471;SDS011;963;42.644;23.336;2022-12-10T14:09:20;11.87;;;7.53;;
1471;SDS011;963;42.644;23.336;2022-12-10T14:12:00;16.10;;;7.60;;
1471;SDS011;963;42.644;23.336;2022-12-10T14:14:34;15.63;;;8.07;;
1471;SDS011;963;42.644;23.336;2022-12-10T14:17:04;14.60;;;8.47;;
1471;SDS011;963;42.644;23.336;2022-12-10T14:19:34;17.57;;;7.87;;
1471;SDS011;963;42.644;23.336;2022-12-10T14:22:04;15.27;;;7.90;;
1471;SDS011;963;42.644;23.336;2022-12-10T14:24:32;12.23;;;7.47;;
1471;SDS011;963;42.644;23.336;2022-12-10T14:27:00;15.30;;;8.57;;
1471;SDS011;963;42.644;23.336;2022-12-10T14:29:28;15.17;;;6.67;;
1471;SDS011;963;42.644;23.336;2022-12-10T14:31:54;14.80;;;8.07;;
1471;SDS011;963;42.644;23.336;2022-12-10T14:34:27;14.50;;;9.07;;
1471;SDS011;963;42.644;23.336;2022-12-10T14:36:54;13.97;;;8.57;;
1471;SDS011;963;42.644;23.336;2022-12-10T14:39:26;11.07;;;7.53;;
1471;SDS011;963;42.644;23.336;2022-12-10T14:41:55;16.77;;;9.03;;
1471;SDS011;963;42.644;23.336;2022-12-10T14:44:23;17.00;;;8.50;;
1471;SDS011;963;42.644;23.336;2022-12-10T14:46:50;12.70;;;7.73;;
1471;SDS011;963;42.644;23.336;2022-12-10T14:49:18;13.90;;;9.00;;
1471;SDS011;963;42.644;23.336;2022-12-10T14:51:45;16.73;;;8.90;;
1471;SDS011;963;42.644;23.336;2022-12-10T14:54:28;22.47;;;11.40;;
1471;SDS011;963;42.644;23.336;2022-12-10T14:56:56;21.30;;;11.87;;
1471;SDS011;963;42.644;23.336;2022-12-10T14:59:47;20.77;;;12.10;;
1471;SDS011;963;42.644;23.336;2022-12-10T15:04:43;18.80;;;11.70;;
1471;SDS011;963;42.644;23.336;2022-12-10T15:07:17;20.83;;;12.57;;
1471;SDS011;963;42.644;23.336;2022-12-10T15:09:48;24.10;;;14.10;;
1471;SDS011;963;42.644;23.336;2022-12-10T15:12:19;19.90;;;10.73;;
1471;SDS011;963;42.644;23.336;2022-12-10T15:14:45;19.13;;;11.90;;
1471;SDS011;963;42.644;23.336;2022-12-10T15:20:18;21.30;;;11.20;;
1471;SDS011;963;42.644;23.336;2022-12-10T15:22:45;20.03;;;11.30;;
1471;SDS011;963;42.644;23.336;2022-12-10T15:25:13;21.30;;;9.77;;
1471;SDS011;963;42.644;23.336;2022-12-10T15:27:55;19.00;;;10.97;;
1471;SDS011;963;42.644;23.336;2022-12-10T15:30:24;14.77;;;9.10;;
1471;SDS011;963;42.644;23.336;2022-12-10T15:33:00;18.07;;;10.67;;
1471;SDS011;963;42.644;23.336;2022-12-10T15:35:26;19.97;;;10.00;;
1471;SDS011;963;42.644;23.336;2022-12-10T15:37:52;17.57;;;11.10;;
1471;SDS011;963;42.644;23.336;2022-12-10T15:40:26;22.70;;;11.00;;
1471;SDS011;963;42.644;23.336;2022-12-10T15:43:36;21.43;;;12.23;;
1471;SDS011;963;42.644;23.336;2022-12-10T15:45:50;26.77;;;12.07;;
1471;SDS011;963;42.644;23.336;2022-12-10T15:48:16;29.77;;;13.37;;
1471;SDS011;963;42.644;23.336;2022-12-10T15:50:42;28.80;;;13.73;;
1471;SDS011;963;42.644;23.336;2022-12-10T15:53:14;55.33;;;37.23;;
1471;SDS011;963;42.644;23.336;2022-12-10T15:55:46;74.67;;;49.47;;
1471;SDS011;963;42.644;23.336;2022-12-10T15:58:12;44.53;;;23.33;;
1471;SDS011;963;42.644;23.336;2022-12-10T16:00:38;29.30;;;15.87;;
1471;SDS011;963;42.644;23.336;2022-12-10T16:03:09;25.20;;;14.80;;
1471;SDS011;963;42.644;23.336;2022-12-10T16:05:37;23.03;;;14.53;;
1471;SDS011;963;42.644;23.336;2022-12-10T16:08:15;22.10;;;14.73;;
1471;SDS011;963;42.644;23.336;2022-12-10T16:10:44;30.70;;;13.90;;
1471;SDS011;963;42.644;23.336;2022-12-10T16:13:12;19.87;;;13.47;;
1471;SDS011;963;42.644;23.336;2022-12-10T16:16:00;24.93;;;12.90;;
1471;SDS011;963;42.644;23.336;2022-12-10T16:18:29;41.73;;;22.30;;
1471;SDS011;963;42.644;23.336;2022-12-10T16:20:55;41.53;;;28.63;;
1471;SDS011;963;42.644;23.336;2022-12-10T16:23:21;33.00;;;22.00;;
1471;SDS011;963;42.644;23.336;2022-12-10T16:25:46;39.57;;;18.50;;
1471;SDS011;963;42.644;23.336;2022-12-10T16:28:16;27.90;;;16.20;;
1471;SDS011;963;42.644;23.336;2022-12-10T16:30:47;217.63;;;152.67;;
1471;SDS011;963;42.644;23.336;2022-12-10T16:33:17;169.37;;;112.90;;
1471;SDS011;963;42.644;23.336;2022-12-10T16:35:45;94.20;;;55.50;;
1471;SDS011;963;42.644;23.336;2022-12-10T16:38:14;55.00;;;34.90;;
1471;SDS011;963;42.644;23.336;2022-12-10T16:40:41;44.33;;;25.70;;
1471;SDS011;963;42.644;23.336;2022-12-10T16:43:26;30.87;;;21.83;;
1471;SDS011;963;42.644;23.336;2022-12-10T16:45:53;36.43;;;17.60;;
1471;SDS011;963;42.644;23.336;2022-12-10T16:48:19;22.77;;;16.47;;
1471;SDS011;963;42.644;23.336;2022-12-10T16:50:46;29.03;;;18.50;;
1471;SDS011;963;42.644;23.336;2022-12-10T16:53:23;31.00;;;17.93;;
1471;SDS011;963;42.644;23.336;2022-12-10T16:55:51;34.00;;;17.90;;
1471;SDS011;963;42.644;23.336;2022-12-10T16:58:17;36.00;;;18.50;;
1471;SDS011;963;42.644;23.336;2022-12-10T17:00:44;33.70;;;18.43;;
1471;SDS011;963;42.644;23.336;2022-12-10T17:03:11;26.60;;;17.80;;
1471;SDS011;963;42.644;23.336;2022-12-10T17:05:48;96.97;;;61.80;;
1471;SDS011;963;42.644;23.336;2022-12-10T17:08:15;33.57;;;19.57;;
1471;SDS011;963;42.644;23.336;2022-12-10T17:10:41;29.63;;;19.07;;
1471;SDS011;963;42.644;23.336;2022-12-10T17:13:25;30.73;;;16.80;;
1471;SDS011;963;42.644;23.336;2022-12-10T17:15:51;40.93;;;19.10;;
1471;SDS011;963;42.644;23.336;2022-12-10T17:18:17;34.67;;;20.27;;
1471;SDS011;963;42.644;23.336;2022-12-10T17:20:44;32.63;;;20.07;;
1471;SDS011;963;42.644;23.336;2022-12-10T17:23:11;31.13;;;20.87;;
1471;SDS011;963;42.644;23.336;2022-12-10T17:25:37;29.53;;;20.47;;
1471;SDS011;963;42.644;23.336;2022-12-10T17:28:03;29.87;;;22.43;;
1471;SDS011;963;42.644;23.336;2022-12-10T17:30:30;30.37;;;21.90;;